Henderson, NV

3:58 AM PDT on July 26, 2016 (GMT -0700)
APRSWXNET | | Change Station

Elev 1998 ft 36.04 °N, 115.09 °W | Updated 88 days ago

Clear
Clear
87 °F
Feels Like 87 °F
N
6
Wind Variable Wind from SSW
Gusts mph

Today
High -- | Low -- °F
--% Chance of Precip.
Yesterday
High -- | Low -- °F
Precip. -- in
Pressure 29.74 in
Visibility 10.0 miles
Clouds Few 14000 ft
Scattered Clouds 22000 ft
Dew Point 43 °F
Humidity 21%
Rainfall in
Snow Depth Not available.
5:43 AM 7:49 PM
Waning Gibbous, 56% visible
METAR KLAS 261056Z 22004KT 10SM FEW140 SCT220 33/04 A2984 RMK AO2 SLP070 T03280044
Pressure 29.74 in
Visibility 10.0 miles
Clouds Few 14000 ft
Scattered Clouds 22000 ft
Dew Point 43 °F
Humidity 21%
Rainfall in
Snow Depth Not available.
5:43 AM 7:49 PM
Waning Gibbous, 56% visible
METAR KLAS 261056Z 22004KT 10SM FEW140 SCT220 33/04 A2984 RMK AO2 SLP070 T03280044

10-Day Weather Forecast

Almanac

Astronomy

Jul. 26, 2016 Rise Set
Actual Time
Civil Twilight
Nautical Twilight
Astronomical Twilight
Moon
Length of Visible Light
Length of Day
Tomorrow will be .
, % of the Moon is Illuminated

Today's Extremes

State Highs State Lows

Community

WunderPhotos

Upload Photos

1,927,557 photos uploaded!

WunderBlog® & News

Nearby

Air Quality

  Air Quality AQ Index Pollutant
Not available.

Snow Depth

Station Depth Elevation

Earthquake Activity

City Distance Mag. Time & Date
Minimum magnitude displayed is 2.5.

Coastal Water Temperatures

Place Temperature

Stations

Nearby Weather Stations

Station Location Temp. Windchill Dew Point Humidity Wind Precip. Elev Updated Type
                   

Watches & Warnings

There are currently no watches in effect.